Terminal Aerodrome Forecast
Issued by NWS

Home | Current Version | Previous Version | Text Only | Print | Product List | Glossary On
Versions: 1 2 3 4 5 6 7 8 9 10 11 12 13 14 15 16 17
000
FTUS43 KFGF 291726
TAFBJI
TAF
KBJI 291726Z 2918/3018 30015G24KT P6SM VCSH OVC035
      TEMPO 2918/2921 BKN020
     FM292300 30015KT P6SM VCSH OVC040
     FM300200 32009KT P6SM BKN035
     FM300400 29010KT P6SM OVC020
     FM301600 31012G20KT P6SM OVC018=

USA.gov is the U.S. government's official web portal to all federal, state and local government web resources and services.